PWSweather.com
Personal Weather Stations
Station Observations
KNCCHINA3
Red Tractor Trail, China Grove, NC 28023

Red Tractor TrailChina Grove, NC 28023

Lat: 35.59751, Lon: -80.60201

Elevation: 800

Station Type: Oregon Scientific WMR 968

http://www.joesweathergarage.com

High Low Average
Temperature 49.8°F9.9°F 25.5°F-3.6°F 33.4°F0.8°F
Dew Point 26.2°F-3.2°F 9.2°F-12.7°F 16.1°F-8.8°F
Winds 10.5 mph NNE16.9 mph NNE Calm Calm 3.6 mph 5.8 mph
Wind Gusts 17.4 mph28.0 mph -- 6.4 mph10.3 mph
Humidity 70% 39% 50%
Pressure 30.30 in1026.10 in 30.03 in1016.90 in -
Precipitation 0.00 in0.00 in - -
Hour Temp Dew Point Humidity Winds Wind Gusts Pressure Precip Precip Rate Daily Precip Total
12:02 AM 31.3°F-0.4°C 13.4°F-10.3°C 47% Calm Calm 2.6 mph4.2 kmh 30.03 in1016.9 mb 0.00 in0.0 mm 0.00 in/hr0.0 mm/hr 0.00 in0.0 mm
12:07 AM 30.9°F-0.6°C 13.1°F-10.5°C 47% 2.1 mph NNW3.4 kmh NNW 2.6 mph4.2 kmh 30.03 in1016.9 mb 0.00 in0.0 mm 0.00 in/hr0.0 mm/hr 0.00 in0.0 mm
12:12 AM 30.6°F-0.8°C 12.8°F-10.7°C 47% Calm Calm 2.6 mph4.2 kmh 30.03 in1016.9 mb 0.00 in0.0 mm 0.00 in/hr0.0 mm/hr 0.00 in0.0 mm
12:17 AM 30.4°F-0.9°C 12.6°F-10.8°C 47% Calm Calm 2.6 mph4.2 kmh 30.03 in1016.9 mb 0.00 in0.0 mm 0.00 in/hr0.0 mm/hr 0.00 in0.0 mm
12:22 AM 29.5°F-1.4°C 11.8°F-11.2°C 47% Calm Calm -- 30.03 in1016.9 mb 0.00 in0.0 mm 0.00 in/hr0.0 mm/hr 0.00 in0.0 mm
12:27 AM 29.3°F-1.5°C 11.6°F-11.3°C 47% Calm Calm -- 30.03 in1016.9 mb 0.00 in0.0 mm 0.00 in/hr0.0 mm/hr 0.00 in0.0 mm
12:32 AM 29.3°F-1.5°C 11.6°F-11.3°C 47% 2.5 mph 4.0 kmh 3.2 mph5.1 kmh 30.03 in1016.9 mb 0.00 in0.0 mm 0.00 in/hr0.0 mm/hr 0.00 in0.0 mm
12:37 AM 29.8°F-1.2°C 12.1°F-11.1°C 47% 3.5 mph NNW5.6 kmh NNW 5.4 mph8.7 kmh 30.03 in1016.9 mb 0.00 in0.0 mm 0.00 in/hr0.0 mm/hr 0.00 in0.0 mm
12:42 AM 30.0°F-1.1°C 11.7°F-11.3°C 46% 2.7 mph N4.3 kmh N 5.8 mph9.3 kmh 30.03 in1016.9 mb 0.00 in0.0 mm 0.00 in/hr0.0 mm/hr 0.00 in0.0 mm
12:48 AM 30.0°F-1.1°C 11.7°F-11.3°C 46% 2.6 mph NNE4.2 kmh NNE 5.8 mph9.3 kmh 30.03 in1016.9 mb 0.00 in0.0 mm 0.00 in/hr0.0 mm/hr 0.00 in0.0 mm
12:53 AM 29.7°F-1.3°C 11.4°F-11.4°C 46% 2.6 mph NNE4.2 kmh NNE 5.0 mph8.0 kmh 30.03 in1016.9 mb 0.00 in0.0 mm 0.00 in/hr0.0 mm/hr 0.00 in0.0 mm
12:58 AM 29.5°F-1.4°C 11.2°F-11.6°C 46% 2.2 mph NNE3.5 kmh NNE 4.4 mph7.1 kmh 30.03 in1016.9 mb 0.00 in0.0 mm 0.00 in/hr0.0 mm/hr 0.00 in0.0 mm
01:03 AM 29.5°F-1.4°C 11.2°F-11.6°C 46% 4.0 mph NNE6.4 kmh NNE 5.0 mph8.0 kmh 30.03 in1016.9 mb 0.00 in0.0 mm 0.00 in/hr0.0 mm/hr 0.00 in0.0 mm
01:10 AM 29.7°F-1.3°C 10.9°F-11.7°C 45% 4.3 mph NNE6.9 kmh NNE 5.4 mph8.7 kmh 30.03 in1016.9 mb 0.00 in0.0 mm 0.00 in/hr0.0 mm/hr 0.00 in0.0 mm
01:15 AM 29.7°F-1.3°C 10.9°F-11.7°C 45% 3.4 mph NNE5.5 kmh NNE 5.4 mph8.7 kmh 30.03 in1016.9 mb 0.00 in0.0 mm 0.00 in/hr0.0 mm/hr 0.00 in0.0 mm
01:20 AM 29.7°F-1.3°C 10.9°F-11.7°C 45% 2.9 mph 4.7 kmh 5.4 mph8.7 kmh 30.03 in1016.9 mb 0.00 in0.0 mm 0.00 in/hr0.0 mm/hr 0.00 in0.0 mm
01:25 AM 29.5°F-1.4°C 10.7°F-11.8°C 45% 3.1 mph 5.0 kmh 5.4 mph8.7 kmh 30.03 in1016.9 mb 0.00 in0.0 mm 0.00 in/hr0.0 mm/hr 0.00 in0.0 mm
01:31 AM 29.3°F-1.5°C 10.5°F-11.9°C 45% 4.1 mph N6.6 kmh N 5.8 mph9.3 kmh 30.03 in1016.9 mb 0.00 in0.0 mm 0.00 in/hr0.0 mm/hr 0.00 in0.0 mm
01:36 AM 29.1°F-1.6°C 10.3°F-12.1°C 45% 4.4 mph NNE7.1 kmh NNE 5.8 mph9.3 kmh 30.03 in1016.9 mb 0.00 in0.0 mm 0.00 in/hr0.0 mm/hr 0.00 in0.0 mm
01:42 AM 29.1°F-1.6°C 10.3°F-12.1°C 45% 4.6 mph NNE7.4 kmh NNE 5.8 mph9.3 kmh 30.03 in1016.9 mb 0.00 in0.0 mm 0.00 in/hr0.0 mm/hr 0.00 in0.0 mm
01:47 AM 28.9°F-1.7°C 10.1°F-12.2°C 45% 6.3 mph NNE10.1 kmh NNE 8.0 mph12.9 kmh 30.06 in1017.9 mb 0.00 in0.0 mm 0.00 in/hr0.0 mm/hr 0.00 in0.0 mm
01:52 AM 28.8°F-1.8°C 10.0°F-12.2°C 45% 5.3 mph NNE8.5 kmh NNE 8.0 mph12.9 kmh 30.06 in1017.9 mb 0.00 in0.0 mm 0.00 in/hr0.0 mm/hr 0.00 in0.0 mm
01:57 AM 28.6°F-1.9°C 9.8°F-12.3°C 45% 6.0 mph NE9.7 kmh NE 8.0 mph12.9 kmh 30.06 in1017.9 mb 0.00 in0.0 mm 0.00 in/hr0.0 mm/hr 0.00 in0.0 mm
02:02 AM 28.6°F-1.9°C 9.8°F-12.3°C 45% 6.5 mph NNE10.5 kmh NNE 8.0 mph12.9 kmh 30.06 in1017.9 mb 0.00 in0.0 mm 0.00 in/hr0.0 mm/hr 0.00 in0.0 mm
02:07 AM 28.6°F-1.9°C 9.8°F-12.3°C 45% 6.1 mph NE9.8 kmh NE 9.0 mph14.5 kmh 30.06 in1017.9 mb 0.00 in0.0 mm 0.00 in/hr0.0 mm/hr 0.00 in0.0 mm
02:13 AM 28.4°F-2.0°C 9.7°F-12.4°C 45% 6.3 mph NNE10.1 kmh NNE 9.0 mph14.5 kmh 30.06 in1017.9 mb 0.00 in0.0 mm 0.00 in/hr0.0 mm/hr 0.00 in0.0 mm
02:18 AM 28.4°F-2.0°C 9.7°F-12.4°C 45% 8.0 mph NNE12.9 kmh NNE 10.8 mph17.4 kmh 30.03 in1016.9 mb 0.00 in0.0 mm 0.00 in/hr0.0 mm/hr 0.00 in0.0 mm
02:23 AM 28.4°F-2.0°C 9.7°F-12.4°C 45% 6.3 mph NNE10.1 kmh NNE 12.6 mph20.3 kmh 30.03 in1016.9 mb 0.00 in0.0 mm 0.00 in/hr0.0 mm/hr 0.00 in0.0 mm
02:28 AM 28.2°F-2.1°C 9.5°F-12.5°C 45% 4.9 mph NNE7.9 kmh NNE 12.6 mph20.3 kmh 30.03 in1016.9 mb 0.00 in0.0 mm 0.00 in/hr0.0 mm/hr 0.00 in0.0 mm
02:33 AM 27.9°F-2.3°C 9.2°F-12.7°C 45% 5.0 mph NNE8.0 kmh NNE 7.2 mph11.6 kmh 30.06 in1017.9 mb 0.00 in0.0 mm 0.00 in/hr0.0 mm/hr 0.00 in0.0 mm
02:38 AM 27.9°F-2.3°C 9.2°F-12.7°C 45% 6.1 mph NNE9.8 kmh NNE 7.6 mph12.2 kmh 30.06 in1017.9 mb 0.00 in0.0 mm 0.00 in/hr0.0 mm/hr 0.00 in0.0 mm
02:45 AM 27.9°F-2.3°C 9.8°F-12.3°C 46% 6.4 mph NNE10.3 kmh NNE 7.6 mph12.2 kmh 30.06 in1017.9 mb 0.00 in0.0 mm 0.00 in/hr0.0 mm/hr 0.00 in0.0 mm
02:50 AM 27.7°F-2.4°C 9.6°F-12.4°C 46% 4.9 mph NNE7.9 kmh NNE 7.6 mph12.2 kmh 30.09 in1019.0 mb 0.00 in0.0 mm 0.00 in/hr0.0 mm/hr 0.00 in0.0 mm
02:56 AM 27.5°F-2.5°C 9.4°F-12.6°C 46% 3.8 mph NNE6.1 kmh NNE 8.0 mph12.9 kmh 30.09 in1019.0 mb 0.00 in0.0 mm 0.00 in/hr0.0 mm/hr 0.00 in0.0 mm
03:01 AM 27.5°F-2.5°C 9.4°F-12.6°C 46% 6.0 mph NNE9.7 kmh NNE 8.0 mph12.9 kmh 30.09 in1019.0 mb 0.00 in0.0 mm 0.00 in/hr0.0 mm/hr 0.00 in0.0 mm
03:06 AM 27.3°F-2.6°C 9.2°F-12.7°C 46% 4.6 mph NE7.4 kmh NE 7.6 mph12.2 kmh 30.03 in1016.9 mb 0.00 in0.0 mm 0.00 in/hr0.0 mm/hr 0.00 in0.0 mm
03:11 AM 27.3°F-2.6°C 9.2°F-12.7°C 46% 6.9 mph N11.1 kmh N 8.6 mph13.8 kmh 30.03 in1016.9 mb 0.00 in0.0 mm 0.00 in/hr0.0 mm/hr 0.00 in0.0 mm
03:16 AM 27.7°F-2.4°C 10.1°F-12.2°C 47% 10.5 mph NNE16.9 kmh NNE 14.8 mph23.8 kmh 30.03 in1016.9 mb 0.00 in0.0 mm 0.00 in/hr0.0 mm/hr 0.00 in0.0 mm
03:21 AM 27.9°F-2.3°C 10.3°F-12.1°C 47% 8.8 mph NNE14.2 kmh NNE 14.8 mph23.8 kmh 30.03 in1016.9 mb 0.00 in0.0 mm 0.00 in/hr0.0 mm/hr 0.00 in0.0 mm
03:26 AM 27.9°F-2.3°C 10.3°F-12.1°C 47% 7.9 mph NNE12.7 kmh NNE 14.8 mph23.8 kmh 30.03 in1016.9 mb 0.00 in0.0 mm 0.00 in/hr0.0 mm/hr 0.00 in0.0 mm
03:31 AM 27.7°F-2.4°C 10.1°F-12.2°C 47% 8.9 mph NNE14.3 kmh NNE 11.2 mph18.0 kmh 30.03 in1016.9 mb 0.00 in0.0 mm 0.00 in/hr0.0 mm/hr 0.00 in0.0 mm
03:36 AM 27.7°F-2.4°C 10.1°F-12.2°C 47% 6.4 mph NNE10.3 kmh NNE 11.2 mph18.0 kmh 30.06 in1017.9 mb 0.00 in0.0 mm 0.00 in/hr0.0 mm/hr 0.00 in0.0 mm
03:41 AM 27.7°F-2.4°C 10.1°F-12.2°C 47% 5.8 mph NNE9.3 kmh NNE 11.6 mph18.7 kmh 30.06 in1017.9 mb 0.00 in0.0 mm 0.00 in/hr0.0 mm/hr 0.00 in0.0 mm
03:46 AM 27.5°F-2.5°C 10.5°F-11.9°C 48% 7.1 mph N11.4 kmh N 11.6 mph18.7 kmh 30.06 in1017.9 mb 0.00 in0.0 mm 0.00 in/hr0.0 mm/hr 0.00 in0.0 mm
03:51 AM 27.3°F-2.6°C 10.3°F-12.1°C 48% 6.2 mph NNE10.0 kmh NNE 8.6 mph13.8 kmh 30.06 in1017.9 mb 0.00 in0.0 mm 0.00 in/hr0.0 mm/hr 0.00 in0.0 mm
03:56 AM 27.3°F-2.6°C 10.3°F-12.1°C 48% 6.9 mph NNE11.1 kmh NNE 8.6 mph13.8 kmh 30.06 in1017.9 mb 0.00 in0.0 mm 0.00 in/hr0.0 mm/hr 0.00 in0.0 mm
04:01 AM 27.3°F-2.6°C 10.3°F-12.1°C 48% 5.6 mph N9.0 kmh N 8.6 mph13.8 kmh 30.06 in1017.9 mb 0.00 in0.0 mm 0.00 in/hr0.0 mm/hr 0.00 in0.0 mm
04:07 AM 27.1°F-2.7°C 10.1°F-12.2°C 48% 7.9 mph NNE12.7 kmh NNE 12.0 mph19.3 kmh 30.06 in1017.9 mb 0.00 in0.0 mm 0.00 in/hr0.0 mm/hr 0.00 in0.0 mm
04:12 AM 27.3°F-2.6°C 10.3°F-12.1°C 48% 6.8 mph NNE10.9 kmh NNE 12.0 mph19.3 kmh 30.06 in1017.9 mb 0.00 in0.0 mm 0.00 in/hr0.0 mm/hr 0.00 in0.0 mm
04:17 AM 27.3°F-2.6°C 10.3°F-12.1°C 48% 8.0 mph NNE12.9 kmh NNE 14.8 mph23.8 kmh 30.06 in1017.9 mb 0.00 in0.0 mm 0.00 in/hr0.0 mm/hr 0.00 in0.0 mm
04:22 AM 27.3°F-2.6°C 10.3°F-12.1°C 48% 8.7 mph NNE14.0 kmh NNE 14.8 mph23.8 kmh 30.09 in1019.0 mb 0.00 in0.0 mm 0.00 in/hr0.0 mm/hr 0.00 in0.0 mm
04:27 AM 27.3°F-2.6°C 10.3°F-12.1°C 48% 7.2 mph NNE11.6 kmh NNE 11.6 mph18.7 kmh 30.09 in1019.0 mb 0.00 in0.0 mm 0.00 in/hr0.0 mm/hr 0.00 in0.0 mm
04:32 AM 27.1°F-2.7°C 10.1°F-12.2°C 48% 8.0 mph N12.9 kmh N 11.6 mph18.7 kmh 30.09 in1019.0 mb 0.00 in0.0 mm 0.00 in/hr0.0 mm/hr 0.00 in0.0 mm
04:37 AM 27.1°F-2.7°C 10.1°F-12.2°C 48% 8.0 mph NNE12.9 kmh NNE 11.2 mph18.0 kmh 30.09 in1019.0 mb 0.00 in0.0 mm 0.00 in/hr0.0 mm/hr 0.00 in0.0 mm
04:42 AM 27.1°F-2.7°C 10.6°F-11.9°C 50% 7.9 mph NNE12.7 kmh NNE 10.8 mph17.4 kmh 30.09 in1019.0 mb 0.00 in0.0 mm 0.00 in/hr0.0 mm/hr 0.00 in0.0 mm
04:47 AM 27.1°F-2.7°C 10.6°F-11.9°C 50% 7.1 mph NNE11.4 kmh NNE 11.2 mph18.0 kmh 30.09 in1019.0 mb 0.00 in0.0 mm 0.00 in/hr0.0 mm/hr 0.00 in0.0 mm
04:52 AM 27.1°F-2.7°C 10.6°F-11.9°C 50% 7.8 mph NNE12.6 kmh NNE 11.2 mph18.0 kmh 30.09 in1019.0 mb 0.00 in0.0 mm 0.00 in/hr0.0 mm/hr 0.00 in0.0 mm
04:57 AM 27.1°F-2.7°C 10.6°F-11.9°C 50% 7.0 mph NE11.3 kmh NE 11.2 mph18.0 kmh 30.09 in1019.0 mb 0.00 in0.0 mm 0.00 in/hr0.0 mm/hr 0.00 in0.0 mm
05:02 AM 27.1°F-2.7°C 11.1°F-11.6°C 51% 6.0 mph NNE9.7 kmh NNE 11.2 mph18.0 kmh 30.12 in1020.0 mb 0.00 in0.0 mm 0.00 in/hr0.0 mm/hr 0.00 in0.0 mm
05:07 AM 27.1°F-2.7°C 11.1°F-11.6°C 51% 5.7 mph NNE9.2 kmh NNE 10.8 mph17.4 kmh 30.12 in1020.0 mb 0.00 in0.0 mm 0.00 in/hr0.0 mm/hr 0.00 in0.0 mm
05:12 AM 27.1°F-2.7°C 11.1°F-11.6°C 51% 6.7 mph NNE10.8 kmh NNE 10.8 mph17.4 kmh 30.12 in1020.0 mb 0.00 in0.0 mm 0.00 in/hr0.0 mm/hr 0.00 in0.0 mm
05:17 AM 27.1°F-2.7°C 11.1°F-11.6°C 51% 5.1 mph N8.2 kmh N 10.8 mph17.4 kmh 30.12 in1020.0 mb 0.00 in0.0 mm 0.00 in/hr0.0 mm/hr 0.00 in0.0 mm
05:22 AM 27.1°F-2.7°C 11.1°F-11.6°C 51% 6.0 mph NNE9.7 kmh NNE 8.0 mph12.9 kmh 30.12 in1020.0 mb 0.00 in0.0 mm 0.00 in/hr0.0 mm/hr 0.00 in0.0 mm
05:27 AM 27.3°F-2.6°C 11.8°F-11.2°C 52% 7.0 mph NNE11.3 kmh NNE 8.6 mph13.8 kmh 30.12 in1020.0 mb 0.00 in0.0 mm 0.00 in/hr0.0 mm/hr 0.00 in0.0 mm
05:32 AM 27.3°F-2.6°C 11.8°F-11.2°C 52% 9.4 mph N15.1 kmh N 11.6 mph18.7 kmh 30.09 in1019.0 mb 0.00 in0.0 mm 0.00 in/hr0.0 mm/hr 0.00 in0.0 mm
05:37 AM 27.5°F-2.5°C 12.0°F-11.1°C 52% 8.7 mph NNE14.0 kmh NNE 11.6 mph18.7 kmh 30.09 in1019.0 mb 0.00 in0.0 mm 0.00 in/hr0.0 mm/hr 0.00 in0.0 mm
05:42 AM 27.3°F-2.6°C 11.8°F-11.2°C 52% 6.1 mph NNE9.8 kmh NNE 11.6 mph18.7 kmh 30.09 in1019.0 mb 0.00 in0.0 mm 0.00 in/hr0.0 mm/hr 0.00 in0.0 mm
05:47 AM 27.3°F-2.6°C 12.3°F-10.9°C 53% 5.8 mph NNE9.3 kmh NNE 9.8 mph15.8 kmh 30.12 in1020.0 mb 0.00 in0.0 mm 0.00 in/hr0.0 mm/hr 0.00 in0.0 mm
05:52 AM 27.3°F-2.6°C 12.3°F-10.9°C 53% 6.3 mph NNE10.1 kmh NNE 9.8 mph15.8 kmh 30.12 in1020.0 mb 0.00 in0.0 mm 0.00 in/hr0.0 mm/hr 0.00 in0.0 mm
05:57 AM 27.1°F-2.7°C 12.1°F-11.1°C 53% 6.1 mph NNE9.8 kmh NNE 11.2 mph18.0 kmh 30.12 in1020.0 mb 0.00 in0.0 mm 0.00 in/hr0.0 mm/hr 0.00 in0.0 mm
06:02 AM 27.1°F-2.7°C 12.1°F-11.1°C 53% 4.4 mph NNE7.1 kmh NNE 11.2 mph18.0 kmh 30.15 in1021.0 mb 0.00 in0.0 mm 0.00 in/hr0.0 mm/hr 0.00 in0.0 mm
06:08 AM 27.0°F-2.8°C 12.0°F-11.1°C 53% 3.5 mph NNE5.6 kmh NNE 8.0 mph12.9 kmh 30.15 in1021.0 mb 0.00 in0.0 mm 0.00 in/hr0.0 mm/hr 0.00 in0.0 mm
06:13 AM 27.0°F-2.8°C 12.0°F-11.1°C 53% 4.4 mph NNE7.1 kmh NNE 8.0 mph12.9 kmh 30.15 in1021.0 mb 0.00 in0.0 mm 0.00 in/hr0.0 mm/hr 0.00 in0.0 mm
06:18 AM 27.0°F-2.8°C 12.0°F-11.1°C 53% 5.1 mph NNE8.2 kmh NNE 7.2 mph11.6 kmh 30.15 in1021.0 mb 0.00 in0.0 mm 0.00 in/hr0.0 mm/hr 0.00 in0.0 mm
06:23 AM 27.0°F-2.8°C 12.0°F-11.1°C 53% 3.1 mph 5.0 kmh 6.2 mph10.0 kmh 30.15 in1021.0 mb 0.00 in0.0 mm 0.00 in/hr0.0 mm/hr 0.00 in0.0 mm
06:28 AM 26.8°F-2.9°C 12.3°F-10.9°C 54% 5.1 mph NNE8.2 kmh NNE 7.6 mph12.2 kmh 30.15 in1021.0 mb 0.00 in0.0 mm 0.00 in/hr0.0 mm/hr 0.00 in0.0 mm
06:33 AM 26.8°F-2.9°C 12.3°F-10.9°C 54% 2.7 mph N4.3 kmh N 7.6 mph12.2 kmh 30.21 in1023.0 mb 0.00 in0.0 mm 0.00 in/hr0.0 mm/hr 0.00 in0.0 mm
06:38 AM 26.6°F-3.0°C 12.1°F-11.1°C 54% 4.1 mph NNE6.6 kmh NNE 6.2 mph10.0 kmh 30.21 in1023.0 mb 0.00 in0.0 mm 0.00 in/hr0.0 mm/hr 0.00 in0.0 mm
06:43 AM 26.6°F-3.0°C 12.1°F-11.1°C 54% 3.3 mph NNE5.3 kmh NNE 6.8 mph10.9 kmh 30.21 in1023.0 mb 0.00 in0.0 mm 0.00 in/hr0.0 mm/hr 0.00 in0.0 mm
06:48 AM 26.6°F-3.0°C 12.1°F-11.1°C 54% 4.9 mph NNE7.9 kmh NNE 6.8 mph10.9 kmh 30.18 in1022.0 mb 0.00 in0.0 mm 0.00 in/hr0.0 mm/hr 0.00 in0.0 mm
06:53 AM 26.4°F-3.1°C 11.9°F-11.2°C 54% 2.3 mph NNE3.7 kmh NNE 5.8 mph9.3 kmh 30.18 in1022.0 mb 0.00 in0.0 mm 0.00 in/hr0.0 mm/hr 0.00 in0.0 mm
06:59 AM 26.2°F-3.2°C 11.7°F-11.3°C 54% 3.1 mph N5.0 kmh N 5.0 mph8.0 kmh 30.18 in1022.0 mb 0.00 in0.0 mm 0.00 in/hr0.0 mm/hr 0.00 in0.0 mm
07:04 AM 26.2°F-3.2°C 11.7°F-11.3°C 54% 2.1 mph 3.4 kmh 5.0 mph8.0 kmh 30.18 in1022.0 mb 0.00 in0.0 mm 0.00 in/hr0.0 mm/hr 0.00 in0.0 mm
07:09 AM 26.1°F-3.3°C 12.1°F-11.1°C 55% 2.7 mph 4.3 kmh 3.2 mph5.1 kmh 30.18 in1022.0 mb 0.00 in0.0 mm 0.00 in/hr0.0 mm/hr 0.00 in0.0 mm
07:14 AM 26.1°F-3.3°C 12.1°F-11.1°C 55% 2.1 mph NNE3.4 kmh NNE 3.2 mph5.1 kmh 30.18 in1022.0 mb 0.00 in0.0 mm 0.00 in/hr0.0 mm/hr 0.00 in0.0 mm
07:19 AM 26.1°F-3.3°C 12.1°F-11.1°C 55% Calm Calm 3.2 mph5.1 kmh 30.21 in1023.0 mb 0.00 in0.0 mm 0.00 in/hr0.0 mm/hr 0.00 in0.0 mm
07:24 AM 25.9°F-3.4°C 11.9°F-11.2°C 55% 2.0 mph NNE3.2 kmh NNE 3.2 mph5.1 kmh 30.21 in1023.0 mb 0.00 in0.0 mm 0.00 in/hr0.0 mm/hr 0.00 in0.0 mm
07:29 AM 25.7°F-3.5°C 11.7°F-11.3°C 55% 1.9 mph NNE3.1 kmh NNE 3.2 mph5.1 kmh 30.21 in1023.0 mb 0.00 in0.0 mm 0.00 in/hr0.0 mm/hr 0.00 in0.0 mm
07:34 AM 25.7°F-3.5°C 11.7°F-11.3°C 55% 2.0 mph NNE3.2 kmh NNE 3.2 mph5.1 kmh 30.21 in1023.0 mb 0.00 in0.0 mm 0.00 in/hr0.0 mm/hr 0.00 in0.0 mm
07:39 AM 25.7°F-3.5°C 11.7°F-11.3°C 55% 2.2 mph NNE3.5 kmh NNE 2.6 mph4.2 kmh 30.21 in1023.0 mb 0.00 in0.0 mm 0.00 in/hr0.0 mm/hr 0.00 in0.0 mm
07:44 AM 25.7°F-3.5°C 11.7°F-11.3°C 55% 2.2 mph NNE3.5 kmh NNE 2.6 mph4.2 kmh 30.21 in1023.0 mb 0.00 in0.0 mm 0.00 in/hr0.0 mm/hr 0.00 in0.0 mm
07:50 AM 25.7°F-3.5°C 11.7°F-11.3°C 55% Calm Calm 2.6 mph4.2 kmh 30.24 in1024.0 mb 0.00 in0.0 mm 0.00 in/hr0.0 mm/hr 0.00 in0.0 mm
07:55 AM 25.9°F-3.4°C 11.9°F-11.2°C 55% Calm Calm 2.2 mph3.5 kmh 30.24 in1024.0 mb 0.00 in0.0 mm 0.00 in/hr0.0 mm/hr 0.00 in0.0 mm
08:00 AM 26.1°F-3.3°C 12.6°F-10.8°C 56% Calm Calm -- 30.24 in1024.0 mb 0.00 in0.0 mm 0.00 in/hr0.0 mm/hr 0.00 in0.0 mm
08:05 AM 26.2°F-3.2°C 12.7°F-10.7°C 56% Calm Calm -- 30.24 in1024.0 mb 0.00 in0.0 mm 0.00 in/hr0.0 mm/hr 0.00 in0.0 mm
08:10 AM 26.2°F-3.2°C 12.7°F-10.7°C 56% Calm Calm -- 30.24 in1024.0 mb 0.00 in0.0 mm 0.00 in/hr0.0 mm/hr 0.00 in0.0 mm
08:15 AM 26.6°F-3.0°C 13.1°F-10.5°C 56% Calm Calm -- 30.24 in1024.0 mb 0.00 in0.0 mm 0.00 in/hr0.0 mm/hr 0.00 in0.0 mm
08:20 AM 27.0°F-2.8°C 13.4°F-10.3°C 56% Calm Calm -- 30.24 in1024.0 mb 0.00 in0.0 mm 0.00 in/hr0.0 mm/hr 0.00 in0.0 mm
08:25 AM 27.1°F-2.7°C 13.5°F-10.3°C 56% Calm Calm -- 30.24 in1024.0 mb 0.00 in0.0 mm 0.00 in/hr0.0 mm/hr 0.00 in0.0 mm
08:30 AM 27.5°F-2.5°C 13.9°F-10.1°C 56% 2.1 mph NNE3.4 kmh NNE 2.2 mph3.5 kmh 30.24 in1024.0 mb 0.00 in0.0 mm 0.00 in/hr0.0 mm/hr 0.00 in0.0 mm
08:35 AM 27.7°F-2.4°C 14.1°F-9.9°C 56% 2.1 mph NNE3.4 kmh NNE 2.6 mph4.2 kmh 30.24 in1024.0 mb 0.00 in0.0 mm 0.00 in/hr0.0 mm/hr 0.00 in0.0 mm
08:40 AM 28.0°F-2.2°C 14.4°F-9.8°C 56% 3.5 mph NNE5.6 kmh NNE 5.4 mph8.7 kmh 30.24 in1024.0 mb 0.00 in0.0 mm 0.00 in/hr0.0 mm/hr 0.00 in0.0 mm
08:45 AM 28.4°F-2.0°C 14.7°F-9.6°C 56% 5.1 mph N8.2 kmh N 8.6 mph13.8 kmh 30.24 in1024.0 mb 0.00 in0.0 mm 0.00 in/hr0.0 mm/hr 0.00 in0.0 mm
08:50 AM 28.6°F-1.9°C 14.5°F-9.7°C 55% 7.0 mph NE11.3 kmh NE 9.8 mph15.8 kmh 30.24 in1024.0 mb 0.00 in0.0 mm 0.00 in/hr0.0 mm/hr 0.00 in0.0 mm
08:55 AM 28.6°F-1.9°C 14.5°F-9.7°C 55% 6.0 mph N9.7 kmh N 9.8 mph15.8 kmh 30.24 in1024.0 mb 0.00 in0.0 mm 0.00 in/hr0.0 mm/hr 0.00 in0.0 mm
09:00 AM 28.8°F-1.8°C 14.7°F-9.6°C 55% 6.6 mph NE10.6 kmh NE 8.6 mph13.8 kmh 30.24 in1024.0 mb 0.00 in0.0 mm 0.00 in/hr0.0 mm/hr 0.00 in0.0 mm
09:05 AM 29.1°F-1.6°C 14.9°F-9.5°C 55% 5.9 mph NNE9.5 kmh NNE 10.8 mph17.4 kmh 30.24 in1024.0 mb 0.00 in0.0 mm 0.00 in/hr0.0 mm/hr 0.00 in0.0 mm
09:10 AM 29.3°F-1.5°C 15.1°F-9.4°C 55% 9.1 mph NNE14.6 kmh NNE 13.0 mph20.9 kmh 30.24 in1024.0 mb 0.00 in0.0 mm 0.00 in/hr0.0 mm/hr 0.00 in0.0 mm
09:15 AM 29.5°F-1.4°C 14.8°F-9.6°C 54% 7.6 mph N12.2 kmh N 13.0 mph20.9 kmh 30.24 in1024.0 mb 0.00 in0.0 mm 0.00 in/hr0.0 mm/hr 0.00 in0.0 mm
09:20 AM 30.0°F-1.1°C 15.8°F-9.0°C 55% 5.7 mph NNE9.2 kmh NNE 13.0 mph20.9 kmh 30.24 in1024.0 mb 0.00 in0.0 mm 0.00 in/hr0.0 mm/hr 0.00 in0.0 mm
09:25 AM 30.2°F-1.0°C 16.0°F-8.9°C 55% 7.2 mph N11.6 kmh N 10.8 mph17.4 kmh 30.24 in1024.0 mb 0.00 in0.0 mm 0.00 in/hr0.0 mm/hr 0.00 in0.0 mm
09:30 AM 30.4°F-0.9°C 15.7°F-9.1°C 54% 7.5 mph NNE12.1 kmh NNE 9.4 mph15.1 kmh 30.24 in1024.0 mb 0.00 in0.0 mm 0.00 in/hr0.0 mm/hr 0.00 in0.0 mm
09:35 AM 30.9°F-0.6°C 16.1°F-8.8°C 54% 6.0 mph NNE9.7 kmh NNE 13.8 mph22.2 kmh 30.24 in1024.0 mb 0.00 in0.0 mm 0.00 in/hr0.0 mm/hr 0.00 in0.0 mm
09:40 AM 31.1°F-0.5°C 16.3°F-8.7°C 54% 8.8 mph NE14.2 kmh NE 13.8 mph22.2 kmh 30.24 in1024.0 mb 0.00 in0.0 mm 0.00 in/hr0.0 mm/hr 0.00 in0.0 mm
09:45 AM 31.5°F-0.3°C 16.2°F-8.8°C 53% 9.1 mph N14.6 kmh N 13.8 mph22.2 kmh 30.24 in1024.0 mb 0.00 in0.0 mm 0.00 in/hr0.0 mm/hr 0.00 in0.0 mm
09:50 AM 32.0°F0.0°C 16.7°F-8.5°C 53% 7.2 mph N11.6 kmh N 12.0 mph19.3 kmh 30.24 in1024.0 mb 0.00 in0.0 mm 0.00 in/hr0.0 mm/hr 0.00 in0.0 mm
09:55 AM 32.7°F0.4°C 17.3°F-8.2°C 53% 5.0 mph NE8.0 kmh NE 17.4 mph28.0 kmh 30.24 in1024.0 mb 0.00 in0.0 mm 0.00 in/hr0.0 mm/hr 0.00 in0.0 mm
10:00 AM 33.3°F0.7°C 17.9°F-7.8°C 53% 8.1 mph NE13.0 kmh NE 17.4 mph28.0 kmh 30.24 in1024.0 mb 0.00 in0.0 mm 0.00 in/hr0.0 mm/hr 0.00 in0.0 mm
10:05 AM 33.1°F0.6°C 17.2°F-8.2°C 52% 9.0 mph NE14.5 kmh NE 16.2 mph26.1 kmh 30.24 in1024.0 mb 0.00 in0.0 mm 0.00 in/hr0.0 mm/hr 0.00 in0.0 mm
10:10 AM 33.3°F0.7°C 17.4°F-8.1°C 52% 9.2 mph NNE14.8 kmh NNE 16.2 mph26.1 kmh 30.24 in1024.0 mb 0.00 in0.0 mm 0.00 in/hr0.0 mm/hr 0.00 in0.0 mm
10:15 AM 33.4°F0.8°C 17.5°F-8.1°C 52% 7.2 mph NNE11.6 kmh NNE 12.0 mph19.3 kmh 30.24 in1024.0 mb 0.00 in0.0 mm 0.00 in/hr0.0 mm/hr 0.00 in0.0 mm
10:20 AM 33.8°F1.0°C 17.9°F-7.8°C 52% 8.5 mph NE13.7 kmh NE 12.6 mph20.3 kmh 30.24 in1024.0 mb 0.00 in0.0 mm 0.00 in/hr0.0 mm/hr 0.00 in0.0 mm
10:25 AM 34.0°F1.1°C 18.0°F-7.8°C 52% 5.9 mph NE9.5 kmh NE 13.0 mph20.9 kmh 30.24 in1024.0 mb 0.00 in0.0 mm 0.00 in/hr0.0 mm/hr 0.00 in0.0 mm
10:30 AM 34.2°F1.2°C 18.2°F-7.7°C 52% 4.3 mph NNE6.9 kmh NNE 13.0 mph20.9 kmh 30.24 in1024.0 mb 0.00 in0.0 mm 0.00 in/hr0.0 mm/hr 0.00 in0.0 mm
10:35 AM 34.5°F1.4°C 18.0°F-7.8°C 51% 9.2 mph NE14.8 kmh NE 14.4 mph23.2 kmh 30.27 in1025.1 mb 0.00 in0.0 mm 0.00 in/hr0.0 mm/hr 0.00 in0.0 mm
10:40 AM 34.7°F1.5°C 18.2°F-7.7°C 51% 7.1 mph NNE11.4 kmh NNE 17.4 mph28.0 kmh 30.27 in1025.1 mb 0.00 in0.0 mm 0.00 in/hr0.0 mm/hr 0.00 in0.0 mm
10:45 AM 35.1°F1.7°C 18.5°F-7.5°C 51% 8.5 mph NE13.7 kmh NE 17.4 mph28.0 kmh 30.27 in1025.1 mb 0.00 in0.0 mm 0.00 in/hr0.0 mm/hr 0.00 in0.0 mm
10:50 AM 35.2°F1.8°C 18.1°F-7.7°C 50% 9.5 mph NNE15.3 kmh NNE 13.0 mph20.9 kmh 30.27 in1025.1 mb 0.00 in0.0 mm 0.00 in/hr0.0 mm/hr 0.00 in0.0 mm
10:55 AM 36.0°F2.2°C 18.9°F-7.3°C 50% 5.7 mph NNW9.2 kmh NNW 13.0 mph20.9 kmh 30.27 in1025.1 mb 0.00 in0.0 mm 0.00 in/hr0.0 mm/hr 0.00 in0.0 mm
11:00 AM 36.1°F2.3°C 18.9°F-7.3°C 50% 6.9 mph 11.1 kmh 11.6 mph18.7 kmh 30.27 in1025.1 mb 0.00 in0.0 mm 0.00 in/hr0.0 mm/hr 0.00 in0.0 mm
11:05 AM 36.7°F2.6°C 19.5°F-6.9°C 50% 5.9 mph NNE9.5 kmh NNE 11.6 mph18.7 kmh 30.27 in1025.1 mb 0.00 in0.0 mm 0.00 in/hr0.0 mm/hr 0.00 in0.0 mm
11:10 AM 37.4°F3.0°C 19.6°F-6.9°C 48% 7.8 mph NNE12.6 kmh NNE 11.6 mph18.7 kmh 30.27 in1025.1 mb 0.00 in0.0 mm 0.00 in/hr0.0 mm/hr 0.00 in0.0 mm
11:16 AM 37.4°F3.0°C 19.6°F-6.9°C 48% 6.2 mph N10.0 kmh N 14.4 mph23.2 kmh 30.27 in1025.1 mb 0.00 in0.0 mm 0.00 in/hr0.0 mm/hr 0.00 in0.0 mm
11:21 AM 37.6°F3.1°C 19.2°F-7.1°C 47% 8.9 mph NE14.3 kmh NE 14.4 mph23.2 kmh 30.27 in1025.1 mb 0.00 in0.0 mm 0.00 in/hr0.0 mm/hr 0.00 in0.0 mm
11:26 AM 37.6°F3.1°C 19.2°F-7.1°C 47% 8.6 mph NE13.8 kmh NE 12.6 mph20.3 kmh 30.27 in1025.1 mb 0.00 in0.0 mm 0.00 in/hr0.0 mm/hr 0.00 in0.0 mm
11:31 AM 38.3°F3.5°C 19.9°F-6.7°C 47% 7.2 mph NNE11.6 kmh NNE 12.6 mph20.3 kmh 30.27 in1025.1 mb 0.00 in0.0 mm 0.00 in/hr0.0 mm/hr 0.00 in0.0 mm
11:36 AM 38.8°F3.8°C 20.3°F-6.5°C 47% 4.2 mph NNE6.8 kmh NNE 13.4 mph21.6 kmh 30.24 in1024.0 mb 0.00 in0.0 mm 0.00 in/hr0.0 mm/hr 0.00 in0.0 mm
11:41 AM 39.4°F4.1°C 20.3°F-6.5°C 46% 6.7 mph NNE10.8 kmh NNE 13.4 mph21.6 kmh 30.24 in1024.0 mb 0.00 in0.0 mm 0.00 in/hr0.0 mm/hr 0.00 in0.0 mm
11:46 AM 39.7°F4.3°C 20.6°F-6.3°C 46% 3.2 mph NE5.1 kmh NE 10.8 mph17.4 kmh 30.24 in1024.0 mb 0.00 in0.0 mm 0.00 in/hr0.0 mm/hr 0.00 in0.0 mm
11:52 AM 40.3°F4.6°C 21.1°F-6.1°C 46% 6.0 mph N9.7 kmh N 9.8 mph15.8 kmh 30.27 in1025.1 mb 0.00 in0.0 mm 0.00 in/hr0.0 mm/hr 0.00 in0.0 mm
11:57 AM 40.6°F4.8°C 21.4°F-5.9°C 46% 6.2 mph NE10.0 kmh NE 8.6 mph13.8 kmh 30.27 in1025.1 mb 0.00 in0.0 mm 0.00 in/hr0.0 mm/hr 0.00 in0.0 mm
12:02 PM 41.0°F5.0°C 21.2°F-6.0°C 45% 7.5 mph NNE12.1 kmh NNE 9.8 mph15.8 kmh 30.24 in1024.0 mb 0.00 in0.0 mm 0.00 in/hr0.0 mm/hr 0.00 in0.0 mm
12:07 PM 41.2°F5.1°C 21.4°F-5.9°C 45% 6.5 mph NW10.5 kmh NW 9.8 mph15.8 kmh 30.24 in1024.0 mb 0.00 in0.0 mm 0.00 in/hr0.0 mm/hr 0.00 in0.0 mm
12:12 PM 42.1°F5.6°C 22.2°F-5.4°C 45% 4.7 mph NE7.6 kmh NE 12.6 mph20.3 kmh 30.24 in1024.0 mb 0.00 in0.0 mm 0.00 in/hr0.0 mm/hr 0.00 in0.0 mm
12:17 PM 42.3°F5.7°C 22.4°F-5.3°C 45% 8.4 mph NE13.5 kmh NE 12.6 mph20.3 kmh 30.24 in1024.0 mb 0.00 in0.0 mm 0.00 in/hr0.0 mm/hr 0.00 in0.0 mm
12:22 PM 42.3°F5.7°C 21.8°F-5.7°C 44% 3.1 mph WSW5.0 kmh WSW 10.8 mph17.4 kmh 30.24 in1024.0 mb 0.00 in0.0 mm 0.00 in/hr0.0 mm/hr 0.00 in0.0 mm
12:27 PM 44.1°F6.7°C 23.4°F-4.8°C 44% 4.6 mph E7.4 kmh E 9.0 mph14.5 kmh 30.24 in1024.0 mb 0.00 in0.0 mm 0.00 in/hr0.0 mm/hr 0.00 in0.0 mm
12:32 PM 45.5°F7.5°C 24.7°F-4.1°C 44% 4.9 mph NE7.9 kmh NE 7.6 mph12.2 kmh 30.24 in1024.0 mb 0.00 in0.0 mm 0.00 in/hr0.0 mm/hr 0.00 in0.0 mm
12:37 PM 45.3°F7.4°C 23.9°F-4.5°C 43% 8.0 mph NE12.9 kmh NE 12.6 mph20.3 kmh 30.24 in1024.0 mb 0.00 in0.0 mm 0.00 in/hr0.0 mm/hr 0.00 in0.0 mm
12:43 PM 45.3°F7.4°C 23.3°F-4.8°C 42% 3.9 mph N6.3 kmh N 12.6 mph20.3 kmh 30.24 in1024.0 mb 0.00 in0.0 mm 0.00 in/hr0.0 mm/hr 0.00 in0.0 mm
12:48 PM 45.5°F7.5°C 23.4°F-4.8°C 42% 8.4 mph NNE13.5 kmh NNE 14.4 mph23.2 kmh 30.24 in1024.0 mb 0.00 in0.0 mm 0.00 in/hr0.0 mm/hr 0.00 in0.0 mm
12:54 PM 46.9°F8.3°C 24.7°F-4.1°C 42% 3.3 mph NE5.3 kmh NE 12.6 mph20.3 kmh 30.24 in1024.0 mb 0.00 in0.0 mm 0.00 in/hr0.0 mm/hr 0.00 in0.0 mm
12:59 PM 47.3°F8.5°C 25.1°F-3.8°C 42% 3.2 mph NE5.1 kmh NE 12.6 mph20.3 kmh 30.24 in1024.0 mb 0.00 in0.0 mm 0.00 in/hr0.0 mm/hr 0.00 in0.0 mm
01:04 PM 47.5°F8.6°C 25.3°F-3.7°C 42% 9.2 mph N14.8 kmh N 12.6 mph20.3 kmh 30.21 in1023.0 mb 0.00 in0.0 mm 0.00 in/hr0.0 mm/hr 0.00 in0.0 mm
01:10 PM 46.9°F8.3°C 24.1°F-4.4°C 41% 5.3 mph N8.5 kmh N 12.6 mph20.3 kmh 30.21 in1023.0 mb 0.00 in0.0 mm 0.00 in/hr0.0 mm/hr 0.00 in0.0 mm
01:15 PM 48.0°F8.9°C 25.1°F-3.8°C 41% 4.8 mph NE7.7 kmh NE 9.0 mph14.5 kmh 30.21 in1023.0 mb 0.00 in0.0 mm 0.00 in/hr0.0 mm/hr 0.00 in0.0 mm
01:20 PM 48.9°F9.4°C 25.9°F-3.4°C 41% 4.3 mph NNE6.9 kmh NNE 7.2 mph11.6 kmh 30.24 in1024.0 mb 0.00 in0.0 mm 0.00 in/hr0.0 mm/hr 0.00 in0.0 mm
01:25 PM 47.1°F8.4°C 24.2°F-4.3°C 41% 6.6 mph N10.6 kmh N 8.6 mph13.8 kmh 30.24 in1024.0 mb 0.00 in0.0 mm 0.00 in/hr0.0 mm/hr 0.00 in0.0 mm
01:30 PM 48.0°F8.9°C 25.1°F-3.8°C 41% 5.0 mph NE8.0 kmh NE 8.6 mph13.8 kmh 30.24 in1024.0 mb 0.00 in0.0 mm 0.00 in/hr0.0 mm/hr 0.00 in0.0 mm
01:35 PM 47.7°F8.7°C 24.8°F-4.0°C 41% 5.8 mph NNW9.3 kmh NNW 8.6 mph13.8 kmh 30.24 in1024.0 mb 0.00 in0.0 mm 0.00 in/hr0.0 mm/hr 0.00 in0.0 mm
01:40 PM 47.8°F8.8°C 24.9°F-3.9°C 41% 4.0 mph WNW6.4 kmh WNW 7.6 mph12.2 kmh 30.24 in1024.0 mb 0.00 in0.0 mm 0.00 in/hr0.0 mm/hr 0.00 in0.0 mm
01:46 PM 49.3°F9.6°C 26.2°F-3.2°C 41% 3.8 mph NE6.1 kmh NE 7.6 mph12.2 kmh 30.24 in1024.0 mb 0.00 in0.0 mm 0.00 in/hr0.0 mm/hr 0.00 in0.0 mm
01:51 PM 49.8°F9.9°C 26.0°F-3.3°C 40% 7.3 mph NE11.7 kmh NE 12.0 mph19.3 kmh 30.24 in1024.0 mb 0.00 in0.0 mm 0.00 in/hr0.0 mm/hr 0.00 in0.0 mm
01:56 PM 49.3°F9.6°C 25.6°F-3.6°C 40% 4.3 mph NE6.9 kmh NE 12.0 mph19.3 kmh 30.24 in1024.0 mb 0.00 in0.0 mm 0.00 in/hr0.0 mm/hr 0.00 in0.0 mm
02:01 PM 47.8°F8.8°C 23.5°F-4.7°C 39% 7.0 mph WNW11.3 kmh WNW 8.0 mph12.9 kmh 30.24 in1024.0 mb 0.00 in0.0 mm 0.00 in/hr0.0 mm/hr 0.00 in0.0 mm
02:06 PM 47.1°F8.4°C 23.6°F-4.7°C 40% 3.3 mph W5.3 kmh W 8.0 mph12.9 kmh 30.24 in1024.0 mb 0.00 in0.0 mm 0.00 in/hr0.0 mm/hr 0.00 in0.0 mm
02:11 PM 48.6°F9.2°C 25.6°F-3.6°C 41% 3.1 mph ESE5.0 kmh ESE 8.0 mph12.9 kmh 30.24 in1024.0 mb 0.00 in0.0 mm 0.00 in/hr0.0 mm/hr 0.00 in0.0 mm
02:16 PM 48.4°F9.1°C 24.1°F-4.4°C 39% 7.1 mph N11.4 kmh N 8.6 mph13.8 kmh 30.24 in1024.0 mb 0.00 in0.0 mm 0.00 in/hr0.0 mm/hr 0.00 in0.0 mm
02:21 PM 48.0°F8.9°C 24.4°F-4.2°C 40% 5.1 mph NW8.2 kmh NW 8.6 mph13.8 kmh 30.24 in1024.0 mb 0.00 in0.0 mm 0.00 in/hr0.0 mm/hr 0.00 in0.0 mm
02:26 PM 47.3°F8.5°C 23.8°F-4.6°C 40% 4.9 mph NW7.9 kmh NW 12.0 mph19.3 kmh 30.24 in1024.0 mb 0.00 in0.0 mm 0.00 in/hr0.0 mm/hr 0.00 in0.0 mm
02:31 PM 47.3°F8.5°C 23.8°F-4.6°C 40% 4.2 mph N6.8 kmh N 12.0 mph19.3 kmh 30.24 in1024.0 mb 0.00 in0.0 mm 0.00 in/hr0.0 mm/hr 0.00 in0.0 mm
02:36 PM 46.0°F7.8°C 22.6°F-5.2°C 40% 3.7 mph N6.0 kmh N 10.8 mph17.4 kmh 30.24 in1024.0 mb 0.00 in0.0 mm 0.00 in/hr0.0 mm/hr 0.00 in0.0 mm
02:41 PM 45.5°F7.5°C 22.1°F-5.5°C 40% 4.7 mph N7.6 kmh N 9.8 mph15.8 kmh 30.24 in1024.0 mb 0.00 in0.0 mm 0.00 in/hr0.0 mm/hr 0.00 in0.0 mm
02:46 PM 45.0°F7.2°C 22.3°F-5.4°C 41% 8.2 mph NNE13.2 kmh NNE 13.0 mph20.9 kmh 30.24 in1024.0 mb 0.00 in0.0 mm 0.00 in/hr0.0 mm/hr 0.00 in0.0 mm
02:51 PM 44.8°F7.1°C 21.5°F-5.8°C 40% 3.4 mph NW5.5 kmh NW 13.0 mph20.9 kmh 30.24 in1024.0 mb 0.00 in0.0 mm 0.00 in/hr0.0 mm/hr 0.00 in0.0 mm
02:56 PM 44.4°F6.9°C 20.5°F-6.4°C 39% 6.3 mph NE10.1 kmh NE 11.6 mph18.7 kmh 30.24 in1024.0 mb 0.00 in0.0 mm 0.00 in/hr0.0 mm/hr 0.00 in0.0 mm
03:01 PM 45.1°F7.3°C 22.4°F-5.3°C 41% 6.2 mph NE10.0 kmh NE 11.6 mph18.7 kmh 30.24 in1024.0 mb 0.00 in0.0 mm 0.00 in/hr0.0 mm/hr 0.00 in0.0 mm
03:07 PM 45.1°F7.3°C 21.8°F-5.7°C 40% 4.1 mph NE6.6 kmh NE 10.8 mph17.4 kmh 30.24 in1024.0 mb 0.00 in0.0 mm 0.00 in/hr0.0 mm/hr 0.00 in0.0 mm
03:12 PM 45.1°F7.3°C 21.8°F-5.7°C 40% 8.9 mph NNE14.3 kmh NNE 11.2 mph18.0 kmh 30.24 in1024.0 mb 0.00 in0.0 mm 0.00 in/hr0.0 mm/hr 0.00 in0.0 mm
03:17 PM 45.1°F7.3°C 22.4°F-5.3°C 41% 3.6 mph N5.8 kmh N 11.2 mph18.0 kmh 30.24 in1024.0 mb 0.00 in0.0 mm 0.00 in/hr0.0 mm/hr 0.00 in0.0 mm
03:22 PM 46.0°F7.8°C 23.2°F-4.9°C 41% 1.8 mph NE2.9 kmh NE 9.4 mph15.1 kmh 30.24 in1024.0 mb 0.00 in0.0 mm 0.00 in/hr0.0 mm/hr 0.00 in0.0 mm
03:27 PM 45.9°F7.7°C 23.2°F-4.9°C 41% 5.0 mph N8.0 kmh N 6.8 mph10.9 kmh 30.24 in1024.0 mb 0.00 in0.0 mm 0.00 in/hr0.0 mm/hr 0.00 in0.0 mm
03:32 PM 45.0°F7.2°C 22.3°F-5.4°C 41% 2.7 mph NW4.3 kmh NW 6.8 mph10.9 kmh 30.24 in1024.0 mb 0.00 in0.0 mm 0.00 in/hr0.0 mm/hr 0.00 in0.0 mm
03:37 PM 45.0°F7.2°C 22.3°F-5.4°C 41% 4.4 mph N7.1 kmh N 6.2 mph10.0 kmh 30.24 in1024.0 mb 0.00 in0.0 mm 0.00 in/hr0.0 mm/hr 0.00 in0.0 mm
03:42 PM 44.6°F7.0°C 22.0°F-5.6°C 41% 3.2 mph NW5.1 kmh NW 6.8 mph10.9 kmh 30.24 in1024.0 mb 0.00 in0.0 mm 0.00 in/hr0.0 mm/hr 0.00 in0.0 mm
03:47 PM 44.6°F7.0°C 22.0°F-5.6°C 41% 3.3 mph W5.3 kmh W 7.2 mph11.6 kmh 30.24 in1024.0 mb 0.00 in0.0 mm 0.00 in/hr0.0 mm/hr 0.00 in0.0 mm
03:52 PM 45.1°F7.3°C 22.4°F-5.3°C 41% 4.2 mph NW6.8 kmh NW 7.6 mph12.2 kmh 30.24 in1024.0 mb 0.00 in0.0 mm 0.00 in/hr0.0 mm/hr 0.00 in0.0 mm
03:57 PM 45.9°F7.7°C 23.2°F-4.9°C 41% 3.9 mph NNE6.3 kmh NNE 7.6 mph12.2 kmh 30.24 in1024.0 mb 0.00 in0.0 mm 0.00 in/hr0.0 mm/hr 0.00 in0.0 mm
04:02 PM 45.3°F7.4°C 22.6°F-5.2°C 41% 5.3 mph NNE8.5 kmh NNE 6.8 mph10.9 kmh 30.24 in1024.0 mb 0.00 in0.0 mm 0.00 in/hr0.0 mm/hr 0.00 in0.0 mm
04:08 PM 44.6°F7.0°C 22.0°F-5.6°C 41% 3.9 mph N6.3 kmh N 6.8 mph10.9 kmh 30.24 in1024.0 mb 0.00 in0.0 mm 0.00 in/hr0.0 mm/hr 0.00 in0.0 mm
04:13 PM 44.1°F6.7°C 21.5°F-5.8°C 41% 5.0 mph N8.0 kmh N 5.8 mph9.3 kmh 30.24 in1024.0 mb 0.00 in0.0 mm 0.00 in/hr0.0 mm/hr 0.00 in0.0 mm
04:18 PM 43.9°F6.6°C 20.7°F-6.3°C 40% 6.5 mph NNE10.5 kmh NNE 11.2 mph18.0 kmh 30.24 in1024.0 mb 0.00 in0.0 mm 0.00 in/hr0.0 mm/hr 0.00 in0.0 mm
04:23 PM 43.7°F6.5°C 21.2°F-6.0°C 41% 5.7 mph NNE9.2 kmh NNE 11.2 mph18.0 kmh 30.24 in1024.0 mb 0.00 in0.0 mm 0.00 in/hr0.0 mm/hr 0.00 in0.0 mm
04:28 PM 43.5°F6.4°C 21.0°F-6.1°C 41% 3.2 mph N5.1 kmh N 9.4 mph15.1 kmh 30.24 in1024.0 mb 0.00 in0.0 mm 0.00 in/hr0.0 mm/hr 0.00 in0.0 mm
04:33 PM 43.7°F6.5°C 21.8°F-5.7°C 42% 2.8 mph NW4.5 kmh NW 8.0 mph12.9 kmh 30.24 in1024.0 mb 0.00 in0.0 mm 0.00 in/hr0.0 mm/hr 0.00 in0.0 mm
04:38 PM 43.3°F6.3°C 21.5°F-5.8°C 42% 3.9 mph NE6.3 kmh NE 5.8 mph9.3 kmh 30.24 in1024.0 mb 0.00 in0.0 mm 0.00 in/hr0.0 mm/hr 0.00 in0.0 mm
04:43 PM 43.2°F6.2°C 21.4°F-5.9°C 42% 2.0 mph NE3.2 kmh NE 5.0 mph8.0 kmh 30.24 in1024.0 mb 0.00 in0.0 mm 0.00 in/hr0.0 mm/hr 0.00 in0.0 mm
04:49 PM 43.0°F6.1°C 21.2°F-6.0°C 42% 3.7 mph WSW6.0 kmh WSW 5.4 mph8.7 kmh 30.27 in1025.1 mb 0.00 in0.0 mm 0.00 in/hr0.0 mm/hr 0.00 in0.0 mm
04:54 PM 43.0°F6.1°C 21.2°F-6.0°C 42% 3.4 mph NNW5.5 kmh NNW 5.4 mph8.7 kmh 30.27 in1025.1 mb 0.00 in0.0 mm 0.00 in/hr0.0 mm/hr 0.00 in0.0 mm
04:59 PM 42.6°F5.9°C 20.8°F-6.2°C 42% Calm Calm 5.4 mph8.7 kmh 30.27 in1025.1 mb 0.00 in0.0 mm 0.00 in/hr0.0 mm/hr 0.00 in0.0 mm
05:04 PM 42.4°F5.8°C 20.6°F-6.3°C 42% Calm Calm -- 30.27 in1025.1 mb 0.00 in0.0 mm 0.00 in/hr0.0 mm/hr 0.00 in0.0 mm
05:09 PM 42.3°F5.7°C 20.5°F-6.4°C 42% 4.4 mph NE7.1 kmh NE 5.8 mph9.3 kmh 30.27 in1025.1 mb 0.00 in0.0 mm 0.00 in/hr0.0 mm/hr 0.00 in0.0 mm
05:14 PM 42.3°F5.7°C 20.5°F-6.4°C 42% Calm Calm 5.8 mph9.3 kmh 30.27 in1025.1 mb 0.00 in0.0 mm 0.00 in/hr0.0 mm/hr 0.00 in0.0 mm
05:19 PM 41.9°F5.5°C 20.2°F-6.6°C 42% Calm Calm 4.4 mph7.1 kmh 30.27 in1025.1 mb 0.00 in0.0 mm 0.00 in/hr0.0 mm/hr 0.00 in0.0 mm
05:24 PM 41.5°F5.3°C 19.8°F-6.8°C 42% Calm Calm -- 30.27 in1025.1 mb 0.00 in0.0 mm 0.00 in/hr0.0 mm/hr 0.00 in0.0 mm
05:29 PM 41.2°F5.1°C 19.5°F-6.9°C 42% Calm Calm 1.8 mph2.9 kmh 30.27 in1025.1 mb 0.00 in0.0 mm 0.00 in/hr0.0 mm/hr 0.00 in0.0 mm
05:34 PM 41.0°F5.0°C 19.4°F-7.0°C 42% Calm Calm 1.8 mph2.9 kmh 30.27 in1025.1 mb 0.00 in0.0 mm 0.00 in/hr0.0 mm/hr 0.00 in0.0 mm
05:40 PM 40.5°F4.7°C 19.5°F-6.9°C 43% Calm Calm -- 30.27 in1025.1 mb 0.00 in0.0 mm 0.00 in/hr0.0 mm/hr 0.00 in0.0 mm
05:45 PM 39.9°F4.4°C 19.0°F-7.2°C 43% Calm Calm -- 30.27 in1025.1 mb 0.00 in0.0 mm 0.00 in/hr0.0 mm/hr 0.00 in0.0 mm
05:50 PM 39.7°F4.3°C 18.8°F-7.3°C 43% Calm Calm -- 30.27 in1025.1 mb 0.00 in0.0 mm 0.00 in/hr0.0 mm/hr 0.00 in0.0 mm
05:55 PM 39.4°F4.1°C 18.5°F-7.5°C 43% Calm Calm -- 30.27 in1025.1 mb 0.00 in0.0 mm 0.00 in/hr0.0 mm/hr 0.00 in0.0 mm
06:00 PM 39.0°F3.9°C 18.2°F-7.7°C 43% Calm Calm -- 30.27 in1025.1 mb 0.00 in0.0 mm 0.00 in/hr0.0 mm/hr 0.00 in0.0 mm
06:05 PM 38.7°F3.7°C 17.9°F-7.8°C 43% Calm Calm -- 30.27 in1025.1 mb 0.00 in0.0 mm 0.00 in/hr0.0 mm/hr 0.00 in0.0 mm
06:11 PM 38.1°F3.4°C 18.0°F-7.8°C 44% Calm Calm -- 30.27 in1025.1 mb 0.00 in0.0 mm 0.00 in/hr0.0 mm/hr 0.00 in0.0 mm
06:16 PM 37.6°F3.1°C 17.5°F-8.1°C 44% Calm Calm -- 30.27 in1025.1 mb 0.00 in0.0 mm 0.00 in/hr0.0 mm/hr 0.00 in0.0 mm
06:21 PM 37.2°F2.9°C 17.1°F-8.3°C 44% Calm Calm -- 30.27 in1025.1 mb 0.00 in0.0 mm 0.00 in/hr0.0 mm/hr 0.00 in0.0 mm
06:26 PM 36.9°F2.7°C 16.9°F-8.4°C 44% Calm Calm -- 30.27 in1025.1 mb 0.00 in0.0 mm 0.00 in/hr0.0 mm/hr 0.00 in0.0 mm
06:31 PM 36.3°F2.4°C 16.3°F-8.7°C 44% Calm Calm -- 30.27 in1025.1 mb 0.00 in0.0 mm 0.00 in/hr0.0 mm/hr 0.00 in0.0 mm
06:36 PM 36.1°F2.3°C 16.7°F-8.5°C 45% Calm Calm -- 30.27 in1025.1 mb 0.00 in0.0 mm 0.00 in/hr0.0 mm/hr 0.00 in0.0 mm
06:41 PM 35.8°F2.1°C 16.4°F-8.7°C 45% Calm Calm -- 30.27 in1025.1 mb 0.00 in0.0 mm 0.00 in/hr0.0 mm/hr 0.00 in0.0 mm
06:46 PM 35.4°F1.9°C 16.1°F-8.8°C 45% Calm Calm -- 30.27 in1025.1 mb 0.00 in0.0 mm 0.00 in/hr0.0 mm/hr 0.00 in0.0 mm
06:51 PM 35.1°F1.7°C 15.8°F-9.0°C 45% Calm Calm -- 30.30 in1026.1 mb 0.00 in0.0 mm 0.00 in/hr0.0 mm/hr 0.00 in0.0 mm
06:56 PM 34.7°F1.5°C 15.4°F-9.2°C 45% Calm Calm -- 30.30 in1026.1 mb 0.00 in0.0 mm 0.00 in/hr0.0 mm/hr 0.00 in0.0 mm
07:01 PM 34.5°F1.4°C 15.8°F-9.0°C 46% Calm Calm -- 30.30 in1026.1 mb 0.00 in0.0 mm 0.00 in/hr0.0 mm/hr 0.00 in0.0 mm
07:06 PM 34.2°F1.2°C 15.5°F-9.2°C 46% Calm Calm -- 30.30 in1026.1 mb 0.00 in0.0 mm 0.00 in/hr0.0 mm/hr 0.00 in0.0 mm
07:12 PM 33.8°F1.0°C 15.2°F-9.3°C 46% Calm Calm -- 30.30 in1026.1 mb 0.00 in0.0 mm 0.00 in/hr0.0 mm/hr 0.00 in0.0 mm
07:17 PM 33.6°F0.9°C 15.6°F-9.1°C 47% Calm Calm -- 30.30 in1026.1 mb 0.00 in0.0 mm 0.00 in/hr0.0 mm/hr 0.00 in0.0 mm
07:23 PM 33.4°F0.8°C 15.4°F-9.2°C 47% Calm Calm -- 30.30 in1026.1 mb 0.00 in0.0 mm 0.00 in/hr0.0 mm/hr 0.00 in0.0 mm
07:28 PM 33.1°F0.6°C 15.6°F-9.1°C 48% Calm Calm -- 30.30 in1026.1 mb 0.00 in0.0 mm 0.00 in/hr0.0 mm/hr 0.00 in0.0 mm
07:33 PM 32.7°F0.4°C 15.3°F-9.3°C 48% Calm Calm -- 30.30 in1026.1 mb 0.00 in0.0 mm 0.00 in/hr0.0 mm/hr 0.00 in0.0 mm
07:38 PM 32.5°F0.3°C 15.1°F-9.4°C 48% Calm Calm -- 30.30 in1026.1 mb 0.00 in0.0 mm 0.00 in/hr0.0 mm/hr 0.00 in0.0 mm
07:43 PM 32.2°F0.1°C 15.3°F-9.3°C 50% Calm Calm -- 30.30 in1026.1 mb 0.00 in0.0 mm 0.00 in/hr0.0 mm/hr 0.00 in0.0 mm
07:48 PM 31.8°F-0.1°C 15.0°F-9.4°C 50% Calm Calm -- 30.30 in1026.1 mb 0.00 in0.0 mm 0.00 in/hr0.0 mm/hr 0.00 in0.0 mm
07:53 PM 31.5°F-0.3°C 14.7°F-9.6°C 50% Calm Calm -- 30.30 in1026.1 mb 0.00 in0.0 mm 0.00 in/hr0.0 mm/hr 0.00 in0.0 mm
07:58 PM 31.3°F-0.4°C 14.5°F-9.7°C 50% Calm Calm -- 30.30 in1026.1 mb 0.00 in0.0 mm 0.00 in/hr0.0 mm/hr 0.00 in0.0 mm
08:03 PM 30.9°F-0.6°C 14.6°F-9.7°C 51% Calm Calm -- 30.30 in1026.1 mb 0.00 in0.0 mm 0.00 in/hr0.0 mm/hr 0.00 in0.0 mm
08:08 PM 30.7°F-0.7°C 14.5°F-9.7°C 51% Calm Calm -- 30.30 in1026.1 mb 0.00 in0.0 mm 0.00 in/hr0.0 mm/hr 0.00 in0.0 mm
08:13 PM 30.4°F-0.9°C 15.2°F-9.3°C 53% Calm Calm -- 30.30 in1026.1 mb 0.00 in0.0 mm 0.00 in/hr0.0 mm/hr 0.00 in0.0 mm
08:18 PM 30.2°F-1.0°C 15.0°F-9.4°C 53% Calm Calm -- 30.30 in1026.1 mb 0.00 in0.0 mm 0.00 in/hr0.0 mm/hr 0.00 in0.0 mm
08:23 PM 29.8°F-1.2°C 15.1°F-9.4°C 54% Calm Calm -- 30.30 in1026.1 mb 0.00 in0.0 mm 0.00 in/hr0.0 mm/hr 0.00 in0.0 mm
08:28 PM 29.7°F-1.3°C 15.0°F-9.4°C 54% Calm Calm -- 30.30 in1026.1 mb 0.00 in0.0 mm 0.00 in/hr0.0 mm/hr 0.00 in0.0 mm
08:33 PM 29.5°F-1.4°C 15.8°F-9.0°C 56% Calm Calm -- 30.30 in1026.1 mb 0.00 in0.0 mm 0.00 in/hr0.0 mm/hr 0.00 in0.0 mm
08:38 PM 29.3°F-1.5°C 15.6°F-9.1°C 56% Calm Calm -- 30.30 in1026.1 mb 0.00 in0.0 mm 0.00 in/hr0.0 mm/hr 0.00 in0.0 mm
08:43 PM 29.1°F-1.6°C 15.4°F-9.2°C 56% Calm Calm -- 30.30 in1026.1 mb 0.00 in0.0 mm 0.00 in/hr0.0 mm/hr 0.00 in0.0 mm
08:48 PM 28.9°F-1.7°C 15.2°F-9.3°C 56% Calm Calm -- 30.27 in1025.1 mb 0.00 in0.0 mm 0.00 in/hr0.0 mm/hr 0.00 in0.0 mm
08:53 PM 28.8°F-1.8°C 15.1°F-9.4°C 56% Calm Calm -- 30.27 in1025.1 mb 0.00 in0.0 mm 0.00 in/hr0.0 mm/hr 0.00 in0.0 mm
08:58 PM 28.8°F-1.8°C 15.1°F-9.4°C 56% Calm Calm -- 30.27 in1025.1 mb 0.00 in0.0 mm 0.00 in/hr0.0 mm/hr 0.00 in0.0 mm
09:03 PM 28.6°F-1.9°C 15.4°F-9.2°C 57% Calm Calm -- 30.27 in1025.1 mb 0.00 in0.0 mm 0.00 in/hr0.0 mm/hr 0.00 in0.0 mm
09:08 PM 28.4°F-2.0°C 15.2°F-9.3°C 57% Calm Calm -- 30.27 in1025.1 mb 0.00 in0.0 mm 0.00 in/hr0.0 mm/hr 0.00 in0.0 mm
09:13 PM 28.2°F-2.1°C 15.5°F-9.2°C 58% Calm Calm -- 30.27 in1025.1 mb 0.00 in0.0 mm 0.00 in/hr0.0 mm/hr 0.00 in0.0 mm
09:18 PM 28.0°F-2.2°C 15.7°F-9.1°C 59% Calm Calm -- 30.27 in1025.1 mb 0.00 in0.0 mm 0.00 in/hr0.0 mm/hr 0.00 in0.0 mm
09:23 PM 27.9°F-2.3°C 15.6°F-9.1°C 59% Calm Calm -- 30.27 in1025.1 mb 0.00 in0.0 mm 0.00 in/hr0.0 mm/hr 0.00 in0.0 mm
09:28 PM 27.9°F-2.3°C 15.6°F-9.1°C 59% Calm Calm -- 30.27 in1025.1 mb 0.00 in0.0 mm 0.00 in/hr0.0 mm/hr 0.00 in0.0 mm
09:33 PM 27.9°F-2.3°C 16.0°F-8.9°C 61% Calm Calm -- 30.30 in1026.1 mb 0.00 in0.0 mm 0.00 in/hr0.0 mm/hr 0.00 in0.0 mm
09:38 PM 27.7°F-2.4°C 16.3°F-8.7°C 62% Calm Calm -- 30.30 in1026.1 mb 0.00 in0.0 mm 0.00 in/hr0.0 mm/hr 0.00 in0.0 mm
09:43 PM 27.7°F-2.4°C 16.3°F-8.7°C 62% Calm Calm -- 30.30 in1026.1 mb 0.00 in0.0 mm 0.00 in/hr0.0 mm/hr 0.00 in0.0 mm
09:48 PM 27.5°F-2.5°C 16.1°F-8.8°C 62% Calm Calm -- 30.27 in1025.1 mb 0.00 in0.0 mm 0.00 in/hr0.0 mm/hr 0.00 in0.0 mm
09:53 PM 27.5°F-2.5°C 16.1°F-8.8°C 62% Calm Calm -- 30.27 in1025.1 mb 0.00 in0.0 mm 0.00 in/hr0.0 mm/hr 0.00 in0.0 mm
09:58 PM 27.3°F-2.6°C 15.9°F-8.9°C 62% Calm Calm -- 30.27 in1025.1 mb 0.00 in0.0 mm 0.00 in/hr0.0 mm/hr 0.00 in0.0 mm
10:03 PM 27.1°F-2.7°C 15.7°F-9.1°C 62% Calm Calm -- 30.30 in1026.1 mb 0.00 in0.0 mm 0.00 in/hr0.0 mm/hr 0.00 in0.0 mm
10:08 PM 27.0°F-2.8°C 15.6°F-9.1°C 62% Calm Calm -- 30.30 in1026.1 mb 0.00 in0.0 mm 0.00 in/hr0.0 mm/hr 0.00 in0.0 mm
10:13 PM 27.0°F-2.8°C 15.6°F-9.1°C 62% Calm Calm -- 30.30 in1026.1 mb 0.00 in0.0 mm 0.00 in/hr0.0 mm/hr 0.00 in0.0 mm
10:18 PM 26.8°F-2.9°C 15.4°F-9.2°C 62% Calm Calm -- 30.27 in1025.1 mb 0.00 in0.0 mm 0.00 in/hr0.0 mm/hr 0.00 in0.0 mm
10:24 PM 26.8°F-2.9°C 15.8°F-9.0°C 63% Calm Calm -- 30.27 in1025.1 mb 0.00 in0.0 mm 0.00 in/hr0.0 mm/hr 0.00 in0.0 mm
10:29 PM 26.8°F-2.9°C 15.8°F-9.0°C 63% Calm Calm -- 30.27 in1025.1 mb 0.00 in0.0 mm 0.00 in/hr0.0 mm/hr 0.00 in0.0 mm
10:34 PM 26.6°F-3.0°C 16.0°F-8.9°C 64% Calm Calm -- 30.30 in1026.1 mb 0.00 in0.0 mm 0.00 in/hr0.0 mm/hr 0.00 in0.0 mm
10:39 PM 26.6°F-3.0°C 16.0°F-8.9°C 64% Calm Calm -- 30.30 in1026.1 mb 0.00 in0.0 mm 0.00 in/hr0.0 mm/hr 0.00 in0.0 mm
10:44 PM 26.6°F-3.0°C 16.4°F-8.7°C 65% Calm Calm -- 30.30 in1026.1 mb 0.00 in0.0 mm 0.00 in/hr0.0 mm/hr 0.00 in0.0 mm
10:49 PM 26.4°F-3.1°C 15.9°F-8.9°C 64% Calm Calm -- 30.30 in1026.1 mb 0.00 in0.0 mm 0.00 in/hr0.0 mm/hr 0.00 in0.0 mm
10:54 PM 26.4°F-3.1°C 15.9°F-8.9°C 64% Calm Calm -- 30.30 in1026.1 mb 0.00 in0.0 mm 0.00 in/hr0.0 mm/hr 0.00 in0.0 mm
10:59 PM 26.4°F-3.1°C 16.2°F-8.8°C 65% Calm Calm -- 30.30 in1026.1 mb 0.00 in0.0 mm 0.00 in/hr0.0 mm/hr 0.00 in0.0 mm
11:04 PM 26.2°F-3.2°C 16.1°F-8.8°C 65% Calm Calm -- 30.30 in1026.1 mb 0.00 in0.0 mm 0.00 in/hr0.0 mm/hr 0.00 in0.0 mm
11:09 PM 26.2°F-3.2°C 17.6°F-8.0°C 69% Calm Calm -- 30.30 in1026.1 mb 0.00 in0.0 mm 0.00 in/hr0.0 mm/hr 0.00 in0.0 mm
11:16 PM 26.1°F-3.3°C 17.1°F-8.3°C 68% Calm Calm -- 30.30 in1026.1 mb 0.00 in0.0 mm 0.00 in/hr0.0 mm/hr 0.00 in0.0 mm
11:21 PM 25.9°F-3.4°C 16.9°F-8.4°C 68% Calm Calm -- 30.30 in1026.1 mb 0.00 in0.0 mm 0.00 in/hr0.0 mm/hr 0.00 in0.0 mm
11:26 PM 25.9°F-3.4°C 16.5°F-8.6°C 67% Calm Calm -- 30.30 in1026.1 mb 0.00 in0.0 mm 0.00 in/hr0.0 mm/hr 0.00 in0.0 mm
11:31 PM 25.9°F-3.4°C 16.9°F-8.4°C 68% Calm Calm -- 30.30 in1026.1 mb 0.00 in0.0 mm 0.00 in/hr0.0 mm/hr 0.00 in0.0 mm
11:37 PM 25.7°F-3.5°C 16.7°F-8.5°C 68% Calm Calm -- 30.30 in1026.1 mb 0.00 in0.0 mm 0.00 in/hr0.0 mm/hr 0.00 in0.0 mm
11:42 PM 25.7°F-3.5°C 17.5°F-8.1°C 70% Calm Calm -- 30.30 in1026.1 mb 0.00 in0.0 mm 0.00 in/hr0.0 mm/hr 0.00 in0.0 mm
11:47 PM 25.5°F-3.6°C 16.9°F-8.4°C 69% Calm Calm -- 30.30 in1026.1 mb 0.00 in0.0 mm 0.00 in/hr0.0 mm/hr 0.00 in0.0 mm
11:52 PM 25.5°F-3.6°C 17.3°F-8.2°C 70% Calm Calm -- 30.30 in1026.1 mb 0.00 in0.0 mm 0.00 in/hr0.0 mm/hr 0.00 in0.0 mm
11:57 PM 25.5°F-3.6°C 17.3°F-8.2°C 70% Calm Calm -- 30.30 in1026.1 mb 0.00 in0.0 mm 0.00 in/hr0.0 mm/hr 0.00 in0.0 mm